sensor_id;sensor_type;location;lat;lon;timestamp;pressure;altitude;pressure_sealevel;temperature;humidity
72370;BME280;60343;-32.030;115.880;2023-05-21T00:01:29;103273.34;;;15.49;50.78
72370;BME280;60343;-32.030;115.880;2023-05-21T00:04:04;103277.91;;;15.68;50.67
72370;BME280;60343;-32.030;115.880;2023-05-21T00:06:39;103279.78;;;15.95;49.54
72370;BME280;60343;-32.030;115.880;2023-05-21T00:09:14;103287.69;;;16.15;49.07
72370;BME280;60343;-32.030;115.880;2023-05-21T00:11:48;103296.31;;;16.28;48.39
72370;BME280;60343;-32.030;115.880;2023-05-21T00:14:22;103292.22;;;16.15;48.68
72370;BME280;60343;-32.030;115.880;2023-05-21T00:17:02;103298.09;;;16.10;49.12
72370;BME280;60343;-32.030;115.880;2023-05-21T00:19:37;103301.41;;;16.04;49.26
72370;BME280;60343;-32.030;115.880;2023-05-21T00:22:12;103303.13;;;15.96;49.78
72370;BME280;60343;-32.030;115.880;2023-05-21T00:24:46;103303.84;;;15.98;49.29
72370;BME280;60343;-32.030;115.880;2023-05-21T00:27:21;103307.38;;;15.98;49.35
72370;BME280;60343;-32.030;115.880;2023-05-21T00:29:56;103303.59;;;15.81;50.08
72370;BME280;60343;-32.030;115.880;2023-05-21T00:32:36;103315.81;;;15.76;50.04
72370;BME280;60343;-32.030;115.880;2023-05-21T00:35:11;103312.09;;;15.86;50.04
72370;BME280;60343;-32.030;115.880;2023-05-21T00:37:45;103314.25;;;15.83;50.02
72370;BME280;60343;-32.030;115.880;2023-05-21T00:40:20;103316.38;;;15.89;49.64
72370;BME280;60343;-32.030;115.880;2023-05-21T00:42:54;103320.47;;;15.93;50.06
72370;BME280;60343;-32.030;115.880;2023-05-21T00:45:29;103319.50;;;15.94;49.83
72370;BME280;60343;-32.030;115.880;2023-05-21T00:48:09;103323.28;;;16.01;50.53
72370;BME280;60343;-32.030;115.880;2023-05-21T00:50:43;103321.13;;;16.05;49.87
72370;BME280;60343;-32.030;115.880;2023-05-21T00:53:18;103313.28;;;16.21;48.72
72370;BME280;60343;-32.030;115.880;2023-05-21T00:55:54;103311.56;;;16.29;48.90
72370;BME280;60343;-32.030;115.880;2023-05-21T00:58:28;103306.69;;;16.33;49.06
72370;BME280;60343;-32.030;115.880;2023-05-21T01:01:03;103312.53;;;16.56;47.22
72370;BME280;60343;-32.030;115.880;2023-05-21T01:03:46;103313.09;;;16.69;47.78
72370;BME280;60343;-32.030;115.880;2023-05-21T01:06:21;103302.13;;;16.88;46.28
72370;BME280;60343;-32.030;115.880;2023-05-21T01:08:56;103302.13;;;16.88;46.48
72370;BME280;60343;-32.030;115.880;2023-05-21T01:11:37;103298.91;;;16.85;46.43
72370;BME280;60343;-32.030;115.880;2023-05-21T01:14:13;103289.13;;;16.74;46.60
72370;BME280;60343;-32.030;115.880;2023-05-21T01:16:49;103288.44;;;16.72;46.87
72370;BME280;60343;-32.030;115.880;2023-05-21T01:19:29;103281.16;;;16.72;46.63
72370;BME280;60343;-32.030;115.880;2023-05-21T01:22:06;103276.41;;;16.84;46.67
72370;BME280;60343;-32.030;115.880;2023-05-21T01:24:48;103271.53;;;17.23;46.07
72370;BME280;60343;-32.030;115.880;2023-05-21T01:27:22;103270.75;;;17.56;46.24
72370;BME280;60343;-32.030;115.880;2023-05-21T01:29:57;103275.44;;;17.90;44.92
72370;BME280;60343;-32.030;115.880;2023-05-21T01:32:37;103274.59;;;17.89;44.46
72370;BME280;60343;-32.030;115.880;2023-05-21T01:35:16;103271.34;;;17.60;44.94
72370;BME280;60343;-32.030;115.880;2023-05-21T01:37:58;103264.06;;;17.43;45.50
72370;BME280;60343;-32.030;115.880;2023-05-21T01:40:48;103263.25;;;17.25;46.29
72370;BME280;60343;-32.030;115.880;2023-05-21T01:43:27;103253.72;;;17.21;46.51
72370;BME280;60343;-32.030;115.880;2023-05-21T01:46:03;103249.41;;;17.28;46.20
72370;BME280;60343;-32.030;115.880;2023-05-21T01:48:38;103247.50;;;17.46;46.17
72370;BME280;60343;-32.030;115.880;2023-05-21T01:51:14;103235.97;;;17.62;45.38
72370;BME280;60343;-32.030;115.880;2023-05-21T01:53:49;103234.44;;;17.59;45.02
72370;BME280;60343;-32.030;115.880;2023-05-21T01:56:29;103230.81;;;17.76;45.56
72370;BME280;60343;-32.030;115.880;2023-05-21T01:59:04;103220.03;;;17.84;45.34
72370;BME280;60343;-32.030;115.880;2023-05-21T02:01:38;103223.34;;;18.04;44.92
72370;BME280;60343;-32.030;115.880;2023-05-21T02:04:13;103226.06;;;18.04;44.17
72370;BME280;60343;-32.030;115.880;2023-05-21T02:06:47;103226.44;;;18.17;44.64
72370;BME280;60343;-32.030;115.880;2023-05-21T02:09:22;103217.88;;;18.38;43.63
72370;BME280;60343;-32.030;115.880;2023-05-21T02:12:02;103221.94;;;18.42;44.07
72370;BME280;60343;-32.030;115.880;2023-05-21T02:14:36;103214.38;;;18.62;43.93
72370;BME280;60343;-32.030;115.880;2023-05-21T02:17:13;103214.59;;;18.68;43.36
72370;BME280;60343;-32.030;115.880;2023-05-21T02:19:48;103194.25;;;18.89;43.72
72370;BME280;60343;-32.030;115.880;2023-05-21T02:22:22;103205.63;;;19.08;42.62
72370;BME280;60343;-32.030;115.880;2023-05-21T02:24:57;103196.97;;;19.13;42.43
72370;BME280;60343;-32.030;115.880;2023-05-21T02:27:37;103197.97;;;19.36;43.22
72370;BME280;60343;-32.030;115.880;2023-05-21T02:30:14;103193.03;;;20.03;41.62
72370;BME280;60343;-32.030;115.880;2023-05-21T02:32:48;103198.00;;;20.92;39.38
72370;BME280;60343;-32.030;115.880;2023-05-21T02:35:25;103194.72;;;21.19;39.30
72370;BME280;60343;-32.030;115.880;2023-05-21T02:37:59;103192.84;;;20.97;39.49
72370;BME280;60343;-32.030;115.880;2023-05-21T02:40:35;103191.66;;;20.77;40.20
72370;BME280;60343;-32.030;115.880;2023-05-21T02:43:15;103195.91;;;20.48;40.25
72370;BME280;60343;-32.030;115.880;2023-05-21T02:45:50;103193.31;;;20.55;40.28
72370;BME280;60343;-32.030;115.880;2023-05-21T02:48:27;103183.22;;;20.64;41.05
72370;BME280;60343;-32.030;115.880;2023-05-21T02:51:01;103187.22;;;20.76;39.41
72370;BME280;60343;-32.030;115.880;2023-05-21T02:53:36;103183.09;;;20.80;40.74
72370;BME280;60343;-32.030;115.880;2023-05-21T02:56:10;103187.44;;;20.89;40.40
72370;BME280;60343;-32.030;115.880;2023-05-21T02:58:50;103177.16;;;20.99;39.40
72370;BME280;60343;-32.030;115.880;2023-05-21T03:01:25;103174.84;;;21.11;39.30
72370;BME280;60343;-32.030;115.880;2023-05-21T03:03:59;103170.94;;;21.28;39.32
72370;BME280;60343;-32.030;115.880;2023-05-21T03:06:34;103168.72;;;21.31;39.48
72370;BME280;60343;-32.030;115.880;2023-05-21T03:09:08;103162.41;;;21.31;38.60
72370;BME280;60343;-32.030;115.880;2023-05-21T03:11:43;103161.69;;;21.52;38.34
72370;BME280;60343;-32.030;115.880;2023-05-21T03:14:23;103155.94;;;21.91;37.04
72370;BME280;60343;-32.030;115.880;2023-05-21T03:16:57;103159.06;;;22.02;36.50
72370;BME280;60343;-32.030;115.880;2023-05-21T03:19:32;103163.09;;;22.06;36.75
72370;BME280;60343;-32.030;115.880;2023-05-21T03:22:07;103153.78;;;21.86;36.99
72370;BME280;60343;-32.030;115.880;2023-05-21T03:24:42;103150.78;;;21.52;37.38
72370;BME280;60343;-32.030;115.880;2023-05-21T03:27:17;103150.34;;;20.88;37.88
72370;BME280;60343;-32.030;115.880;2023-05-21T03:29:57;103139.44;;;20.50;39.25
72370;BME280;60343;-32.030;115.880;2023-05-21T03:32:31;103136.03;;;20.48;39.89
72370;BME280;60343;-32.030;115.880;2023-05-21T03:35:08;103140.38;;;20.80;39.34
72370;BME280;60343;-32.030;115.880;2023-05-21T03:37:42;103127.50;;;21.12;38.30
72370;BME280;60343;-32.030;115.880;2023-05-21T03:40:16;103122.75;;;21.14;38.55
72370;BME280;60343;-32.030;115.880;2023-05-21T03:42:51;103114.81;;;21.04;39.74
72370;BME280;60343;-32.030;115.880;2023-05-21T03:45:31;103104.91;;;21.55;38.80
72370;BME280;60343;-32.030;115.880;2023-05-21T03:48:06;103102.13;;;21.84;38.36
72370;BME280;60343;-32.030;115.880;2023-05-21T03:50:40;103094.75;;;22.14;37.28
72370;BME280;60343;-32.030;115.880;2023-05-21T03:53:14;103085.75;;;22.56;37.68
72370;BME280;60343;-32.030;115.880;2023-05-21T03:55:49;103076.63;;;22.49;36.66
72370;BME280;60343;-32.030;115.880;2023-05-21T03:58:24;103080.88;;;22.31;36.83
72370;BME280;60343;-32.030;115.880;2023-05-21T04:01:04;103068.00;;;22.24;36.71
72370;BME280;60343;-32.030;115.880;2023-05-21T04:03:39;103056.31;;;22.31;37.01
72370;BME280;60343;-32.030;115.880;2023-05-21T04:06:13;103053.34;;;22.53;37.95
72370;BME280;60343;-32.030;115.880;2023-05-21T04:08:48;103048.66;;;22.68;37.44
72370;BME280;60343;-32.030;115.880;2023-05-21T04:11:22;103034.72;;;22.57;35.57
72370;BME280;60343;-32.030;115.880;2023-05-21T04:13:57;103029.53;;;22.19;36.22
72370;BME280;60343;-32.030;115.880;2023-05-21T04:16:37;103024.84;;;22.13;36.74
72370;BME280;60343;-32.030;115.880;2023-05-21T04:19:12;103025.78;;;21.84;38.34
72370;BME280;60343;-32.030;115.880;2023-05-21T04:21:46;103024.41;;;21.74;37.84
72370;BME280;60343;-32.030;115.880;2023-05-21T04:24:21;103019.03;;;21.80;38.01
72370;BME280;60343;-32.030;115.880;2023-05-21T04:26:55;103014.09;;;22.05;37.28
72370;BME280;60343;-32.030;115.880;2023-05-21T04:29:30;103005.97;;;22.12;36.82
72370;BME280;60343;-32.030;115.880;2023-05-21T04:32:14;103009.91;;;22.31;36.43
72370;BME280;60343;-32.030;115.880;2023-05-21T04:34:49;102984.06;;;22.54;36.59
72370;BME280;60343;-32.030;115.880;2023-05-21T04:37:24;103005.28;;;22.80;37.16
72370;BME280;60343;-32.030;115.880;2023-05-21T04:40:01;102994.00;;;22.83;36.12
72370;BME280;60343;-32.030;115.880;2023-05-21T04:42:36;102994.91;;;22.97;36.92
72370;BME280;60343;-32.030;115.880;2023-05-21T04:45:10;102991.28;;;22.90;34.96
72370;BME280;60343;-32.030;115.880;2023-05-21T04:47:50;102981.00;;;22.92;35.02
72370;BME280;60343;-32.030;115.880;2023-05-21T04:50:26;102982.94;;;22.70;35.01
72370;BME280;60343;-32.030;115.880;2023-05-21T04:53:01;102970.47;;;22.61;35.87
72370;BME280;60343;-32.030;115.880;2023-05-21T04:55:36;102971.66;;;22.73;35.85
72370;BME280;60343;-32.030;115.880;2023-05-21T04:58:10;102962.03;;;22.84;34.98
72370;BME280;60343;-32.030;115.880;2023-05-21T05:00:45;102959.44;;;23.03;34.26
72370;BME280;60343;-32.030;115.880;2023-05-21T05:03:26;102949.88;;;23.34;34.11
72370;BME280;60343;-32.030;115.880;2023-05-21T05:06:00;102945.81;;;23.17;33.21
72370;BME280;60343;-32.030;115.880;2023-05-21T05:08:35;102944.78;;;23.24;32.64
72370;BME280;60343;-32.030;115.880;2023-05-21T05:11:09;102936.13;;;23.14;33.20
72370;BME280;60343;-32.030;115.880;2023-05-21T05:13:44;102935.31;;;23.14;33.40
72370;BME280;60343;-32.030;115.880;2023-05-21T05:16:18;102934.88;;;23.17;33.26
72370;BME280;60343;-32.030;115.880;2023-05-21T05:18:58;102936.13;;;23.07;33.60
72370;BME280;60343;-32.030;115.880;2023-05-21T05:21:33;102923.94;;;23.10;34.30
72370;BME280;60343;-32.030;115.880;2023-05-21T05:24:07;102922.28;;;23.16;34.60
72370;BME280;60343;-32.030;115.880;2023-05-21T05:26:42;102910.09;;;23.18;34.15
72370;BME280;60343;-32.030;115.880;2023-05-21T05:29:17;102912.41;;;23.21;34.23
72370;BME280;60343;-32.030;115.880;2023-05-21T05:31:51;102905.47;;;23.19;33.27
72370;BME280;60343;-32.030;115.880;2023-05-21T05:34:31;102900.88;;;22.78;33.51
72370;BME280;60343;-32.030;115.880;2023-05-21T05:37:06;102899.06;;;22.30;34.37
72370;BME280;60343;-32.030;115.880;2023-05-21T05:39:40;102905.16;;;22.04;34.76
72370;BME280;60343;-32.030;115.880;2023-05-21T05:42:14;102898.28;;;21.87;35.12
72370;BME280;60343;-32.030;115.880;2023-05-21T05:44:49;102897.81;;;21.83;35.48
72370;BME280;60343;-32.030;115.880;2023-05-21T05:47:24;102889.09;;;22.15;35.46
72370;BME280;60343;-32.030;115.880;2023-05-21T05:50:06;102870.94;;;22.63;35.01
72370;BME280;60343;-32.030;115.880;2023-05-21T05:52:40;102860.25;;;23.16;33.64
72370;BME280;60343;-32.030;115.880;2023-05-21T05:55:15;102850.31;;;23.63;32.51
72370;BME280;60343;-32.030;115.880;2023-05-21T05:57:51;102849.66;;;23.80;32.52
72370;BME280;60343;-32.030;115.880;2023-05-21T06:00:25;102845.22;;;23.79;33.04
72370;BME280;60343;-32.030;115.880;2023-05-21T06:03:00;102841.88;;;23.77;33.46
72370;BME280;60343;-32.030;115.880;2023-05-21T06:05:40;102838.31;;;23.64;32.58
72370;BME280;60343;-32.030;115.880;2023-05-21T06:08:15;102841.03;;;23.50;32.58
72370;BME280;60343;-32.030;115.880;2023-05-21T06:10:49;102832.53;;;23.26;32.92
72370;BME280;60343;-32.030;115.880;2023-05-21T06:13:24;102839.00;;;23.05;33.44
72370;BME280;60343;-32.030;115.880;2023-05-21T06:15:58;102845.38;;;22.71;34.89
72370;BME280;60343;-32.030;115.880;2023-05-21T06:18:32;102839.00;;;22.57;36.34
72370;BME280;60343;-32.030;115.880;2023-05-21T06:21:12;102843.75;;;22.49;35.34
72370;BME280;60343;-32.030;115.880;2023-05-21T06:23:47;102840.78;;;22.44;35.81
72370;BME280;60343;-32.030;115.880;2023-05-21T06:26:21;102840.31;;;22.34;35.80
72370;BME280;60343;-32.030;115.880;2023-05-21T06:28:56;102837.16;;;22.30;36.02
72370;BME280;60343;-32.030;115.880;2023-05-21T06:31:30;102829.81;;;22.31;35.94
72370;BME280;60343;-32.030;115.880;2023-05-21T06:34:05;102833.56;;;22.30;35.93
72370;BME280;60343;-32.030;115.880;2023-05-21T06:36:46;102838.06;;;22.44;35.18
72370;BME280;60343;-32.030;115.880;2023-05-21T06:39:20;102825.88;;;22.40;35.50
72370;BME280;60343;-32.030;115.880;2023-05-21T06:41:55;102815.66;;;22.55;35.61
72370;BME280;60343;-32.030;115.880;2023-05-21T06:44:29;102808.91;;;22.51;35.27
72370;BME280;60343;-32.030;115.880;2023-05-21T06:47:04;102807.94;;;22.65;35.40
72370;BME280;60343;-32.030;115.880;2023-05-21T06:49:38;102810.03;;;22.63;35.70
72370;BME280;60343;-32.030;115.880;2023-05-21T06:52:18;102805.81;;;22.60;34.94
72370;BME280;60343;-32.030;115.880;2023-05-21T06:54:53;102791.75;;;22.63;34.05
72370;BME280;60343;-32.030;115.880;2023-05-21T06:57:27;102800.31;;;22.47;34.33
72370;BME280;60343;-32.030;115.880;2023-05-21T07:00:03;102796.69;;;22.40;33.74
72370;BME280;60343;-32.030;115.880;2023-05-21T07:02:37;102802.09;;;22.34;33.87
72370;BME280;60343;-32.030;115.880;2023-05-21T07:05:12;102795.38;;;22.30;33.89
72370;BME280;60343;-32.030;115.880;2023-05-21T07:07:52;102794.94;;;22.26;34.48
72370;BME280;60343;-32.030;115.880;2023-05-21T07:10:26;102800.19;;;22.28;33.97
72370;BME280;60343;-32.030;115.880;2023-05-21T07:13:01;102797.84;;;22.24;33.28
72370;BME280;60343;-32.030;115.880;2023-05-21T07:15:35;102798.28;;;22.21;33.58
72370;BME280;60343;-32.030;115.880;2023-05-21T07:18:09;102806.84;;;22.18;34.01
72370;BME280;60343;-32.030;115.880;2023-05-21T07:20:44;102808.50;;;22.13;33.91
72370;BME280;60343;-32.030;115.880;2023-05-21T07:23:24;102808.66;;;22.05;34.52
72370;BME280;60343;-32.030;115.880;2023-05-21T07:25:58;102808.66;;;21.83;34.90
72370;BME280;60343;-32.030;115.880;2023-05-21T07:28:33;102804.84;;;21.78;35.09
72370;BME280;60343;-32.030;115.880;2023-05-21T07:31:07;102811.34;;;21.77;35.23
72370;BME280;60343;-32.030;115.880;2023-05-21T07:33:42;102810.53;;;21.83;35.16
72370;BME280;60343;-32.030;115.880;2023-05-21T07:36:16;102810.28;;;21.99;34.72
72370;BME280;60343;-32.030;115.880;2023-05-21T07:38:57;102811.97;;;22.00;34.47
72370;BME280;60343;-32.030;115.880;2023-05-21T07:41:31;102806.53;;;22.00;35.62
72370;BME280;60343;-32.030;115.880;2023-05-21T07:44:05;102810.16;;;22.07;34.81
72370;BME280;60343;-32.030;115.880;2023-05-21T07:46:40;102801.97;;;22.14;34.18
72370;BME280;60343;-32.030;115.880;2023-05-21T07:49:14;102806.56;;;22.07;34.76
72370;BME280;60343;-32.030;115.880;2023-05-21T07:51:49;102806.81;;;22.12;34.68
72370;BME280;60343;-32.030;115.880;2023-05-21T07:54:28;102803.00;;;22.06;34.82
72370;BME280;60343;-32.030;115.880;2023-05-21T07:57:03;102804.03;;;22.05;34.57
72370;BME280;60343;-32.030;115.880;2023-05-21T07:59:38;102809.38;;;21.92;34.97
72370;BME280;60343;-32.030;115.880;2023-05-21T08:02:12;102808.22;;;21.80;35.62
72370;BME280;60343;-32.030;115.880;2023-05-21T08:04:47;102796.66;;;21.78;35.26
72370;BME280;60343;-32.030;115.880;2023-05-21T08:07:22;102799.13;;;21.73;35.01
72370;BME280;60343;-32.030;115.880;2023-05-21T08:10:02;102806.53;;;21.51;36.67
72370;BME280;60343;-32.030;115.880;2023-05-21T08:12:36;102804.13;;;21.42;36.03
72370;BME280;60343;-32.030;115.880;2023-05-21T08:15:11;102807.38;;;21.30;36.34
72370;BME280;60343;-32.030;115.880;2023-05-21T08:17:45;102807.09;;;21.25;36.16
72370;BME280;60343;-32.030;115.880;2023-05-21T08:20:20;102802.59;;;21.18;35.94
72370;BME280;60343;-32.030;115.880;2023-05-21T08:22:55;102795.56;;;21.09;36.89
72370;BME280;60343;-32.030;115.880;2023-05-21T08:25:35;102790.06;;;21.02;36.49
72370;BME280;60343;-32.030;115.880;2023-05-21T08:28:09;102790.19;;;20.94;36.62
72370;BME280;60343;-32.030;115.880;2023-05-21T08:30:44;102795.25;;;20.82;37.16
72370;BME280;60343;-32.030;115.880;2023-05-21T08:33:18;102796.41;;;20.73;37.55
72370;BME280;60343;-32.030;115.880;2023-05-21T08:35:53;102797.28;;;20.59;38.57
72370;BME280;60343;-32.030;115.880;2023-05-21T08:38:27;102794.69;;;20.51;38.40
72370;BME280;60343;-32.030;115.880;2023-05-21T08:41:09;102799.38;;;20.42;39.55
72370;BME280;60343;-32.030;115.880;2023-05-21T08:43:45;102811.06;;;20.28;39.38
72370;BME280;60343;-32.030;115.880;2023-05-21T08:46:22;102810.22;;;20.13;40.06
72370;BME280;60343;-32.030;115.880;2023-05-21T08:48:58;102808.72;;;19.96;40.49
72370;BME280;60343;-32.030;115.880;2023-05-21T08:51:34;102797.16;;;19.79;40.88
72370;BME280;60343;-32.030;115.880;2023-05-21T08:54:09;102793.38;;;19.65;41.39
72370;BME280;60343;-32.030;115.880;2023-05-21T08:56:50;102800.16;;;19.47;42.20
72370;BME280;60343;-32.030;115.880;2023-05-21T08:59:26;102797.66;;;19.37;41.73
72370;BME280;60343;-32.030;115.880;2023-05-21T09:02:04;102799.88;;;19.34;41.88
72370;BME280;60343;-32.030;115.880;2023-05-21T09:04:40;102799.13;;;19.25;42.07
72370;BME280;60343;-32.030;115.880;2023-05-21T09:07:15;102793.06;;;19.15;42.72
72370;BME280;60343;-32.030;115.880;2023-05-21T09:09:55;102797.69;;;19.06;42.56
72370;BME280;60343;-32.030;115.880;2023-05-21T09:12:35;102793.00;;;19.00;42.41
72370;BME280;60343;-32.030;115.880;2023-05-21T09:15:10;102787.13;;;18.89;42.90
72370;BME280;60343;-32.030;115.880;2023-05-21T09:17:47;102784.78;;;18.85;43.03
72370;BME280;60343;-32.030;115.880;2023-05-21T09:20:25;102787.06;;;18.74;43.35
72370;BME280;60343;-32.030;115.880;2023-05-21T09:23:03;102779.78;;;18.66;43.68
72370;BME280;60343;-32.030;115.880;2023-05-21T09:25:39;102784.56;;;18.56;43.52
72370;BME280;60343;-32.030;115.880;2023-05-21T09:28:19;102789.34;;;18.54;43.73
72370;BME280;60343;-32.030;115.880;2023-05-21T09:30:53;102787.31;;;18.48;44.07
72370;BME280;60343;-32.030;115.880;2023-05-21T09:33:28;102781.94;;;18.40;44.80
72370;BME280;60343;-32.030;115.880;2023-05-21T09:36:03;102777.16;;;18.42;44.27
72370;BME280;60343;-32.030;115.880;2023-05-21T09:38:40;102780.19;;;18.47;44.46
72370;BME280;60343;-32.030;115.880;2023-05-21T09:41:16;102779.84;;;18.50;44.98
72370;BME280;60343;-32.030;115.880;2023-05-21T09:43:59;102781.56;;;18.43;45.12
72370;BME280;60343;-32.030;115.880;2023-05-21T09:46:42;102775.78;;;18.46;45.16
72370;BME280;60343;-32.030;115.880;2023-05-21T09:49:23;102783.09;;;18.46;45.10
72370;BME280;60343;-32.030;115.880;2023-05-21T09:51:58;102771.72;;;18.42;45.75
72370;BME280;60343;-32.030;115.880;2023-05-21T09:54:33;102780.75;;;18.34;45.67
72370;BME280;60343;-32.030;115.880;2023-05-21T09:57:07;102786.03;;;18.28;46.10
72370;BME280;60343;-32.030;115.880;2023-05-21T09:59:50;102789.31;;;18.15;46.40
72370;BME280;60343;-32.030;115.880;2023-05-21T10:02:24;102794.06;;;18.05;46.90
72370;BME280;60343;-32.030;115.880;2023-05-21T10:04:59;102794.25;;;17.95;46.95
72370;BME280;60343;-32.030;115.880;2023-05-21T10:07:34;102785.97;;;17.89;47.26
72370;BME280;60343;-32.030;115.880;2023-05-21T10:10:10;102795.63;;;17.83;47.59
72370;BME280;60343;-32.030;115.880;2023-05-21T10:12:48;102796.81;;;17.73;47.69
72370;BME280;60343;-32.030;115.880;2023-05-21T10:15:34;102805.97;;;17.64;48.24
72370;BME280;60343;-32.030;115.880;2023-05-21T10:18:12;102810.03;;;17.60;47.99
72370;BME280;60343;-32.030;115.880;2023-05-21T10:20:48;102802.72;;;17.52;48.49
72370;BME280;60343;-32.030;115.880;2023-05-21T10:23:23;102801.03;;;17.43;48.37
72370;BME280;60343;-32.030;115.880;2023-05-21T10:25:59;102805.91;;;17.31;48.99
72370;BME280;60343;-32.030;115.880;2023-05-21T10:28:34;102805.75;;;17.25;48.67
72370;BME280;60343;-32.030;115.880;2023-05-21T10:31:15;102800.00;;;17.20;48.83
72370;BME280;60343;-32.030;115.880;2023-05-21T10:33:51;102790.50;;;17.15;49.63
72370;BME280;60343;-32.030;115.880;2023-05-21T10:36:30;102787.13;;;17.13;49.91
72370;BME280;60343;-32.030;115.880;2023-05-21T10:39:06;102788.47;;;17.17;49.32
72370;BME280;60343;-32.030;115.880;2023-05-21T10:41:50;102784.94;;;17.17;49.78
72370;BME280;60343;-32.030;115.880;2023-05-21T10:44:33;102782.41;;;17.32;49.29
72370;BME280;60343;-32.030;115.880;2023-05-21T10:53:36;102799.16;;;17.43;49.12
72370;BME280;60343;-32.030;115.880;2023-05-21T10:56:22;102807.28;;;17.27;50.17
72370;BME280;60343;-32.030;115.880;2023-05-21T10:59:09;102802.19;;;17.16;49.79
72370;BME280;60343;-32.030;115.880;2023-05-21T11:01:49;102805.72;;;17.08;50.21
72370;BME280;60343;-32.030;115.880;2023-05-21T11:04:27;102805.19;;;16.89;50.78
72370;BME280;60343;-32.030;115.880;2023-05-21T11:07:12;102808.53;;;16.75;51.84
72370;BME280;60343;-32.030;115.880;2023-05-21T11:09:46;102807.28;;;16.61;52.09
72370;BME280;60343;-32.030;115.880;2023-05-21T11:12:25;102819.53;;;16.47;52.42
72370;BME280;60343;-32.030;115.880;2023-05-21T11:15:00;102825.69;;;16.31;53.06
72370;BME280;60343;-32.030;115.880;2023-05-21T11:17:39;102813.78;;;16.16;53.16
72370;BME280;60343;-32.030;115.880;2023-05-21T11:20:14;102803.72;;;16.01;53.67
72370;BME280;60343;-32.030;115.880;2023-05-21T11:22:54;102810.41;;;15.88;55.24
72370;BME280;60343;-32.030;115.880;2023-05-21T11:25:31;102811.31;;;15.79;55.43
72370;BME280;60343;-32.030;115.880;2023-05-21T11:28:06;102816.81;;;15.70;55.46
72370;BME280;60343;-32.030;115.880;2023-05-21T11:30:40;102820.19;;;15.64;55.90
72370;BME280;60343;-32.030;115.880;2023-05-21T11:33:18;102816.38;;;15.57;56.08
72370;BME280;60343;-32.030;115.880;2023-05-21T11:35:59;102816.97;;;15.51;56.61
72370;BME280;60343;-32.030;115.880;2023-05-21T11:38:39;102820.13;;;15.46;57.34
72370;BME280;60343;-32.030;115.880;2023-05-21T11:41:19;102808.09;;;15.40;57.64
72370;BME280;60343;-32.030;115.880;2023-05-21T11:44:01;102817.22;;;15.39;56.90
72370;BME280;60343;-32.030;115.880;2023-05-21T11:46:35;102809.97;;;15.40;57.00
72370;BME280;60343;-32.030;115.880;2023-05-21T11:49:11;102799.34;;;15.38;56.96
72370;BME280;60343;-32.030;115.880;2023-05-21T11:51:45;102804.09;;;15.44;57.35
72370;BME280;60343;-32.030;115.880;2023-05-21T11:54:25;102809.75;;;15.51;57.50
72370;BME280;60343;-32.030;115.880;2023-05-21T11:57:06;102802.91;;;15.57;57.17
72370;BME280;60343;-32.030;115.880;2023-05-21T11:59:42;102803.41;;;15.60;57.19
72370;BME280;60343;-32.030;115.880;2023-05-21T12:02:20;102800.91;;;15.59;57.50
72370;BME280;60343;-32.030;115.880;2023-05-21T12:04:55;102800.19;;;15.57;57.39
72370;BME280;60343;-32.030;115.880;2023-05-21T12:07:30;102800.78;;;15.51;57.81
72370;BME280;60343;-32.030;115.880;2023-05-21T12:10:11;102800.56;;;15.44;57.55
72370;BME280;60343;-32.030;115.880;2023-05-21T12:12:46;102800.00;;;15.40;57.78
72370;BME280;60343;-32.030;115.880;2023-05-21T12:15:21;102795.78;;;15.38;57.47
72370;BME280;60343;-32.030;115.880;2023-05-21T12:17:56;102799.63;;;15.35;57.00
72370;BME280;60343;-32.030;115.880;2023-05-21T12:20:31;102798.09;;;15.33;57.51
72370;BME280;60343;-32.030;115.880;2023-05-21T12:23:25;102789.59;;;15.10;57.92
72370;BME280;60343;-32.030;115.880;2023-05-21T12:25:59;102797.78;;;15.00;58.29
72370;BME280;60343;-32.030;115.880;2023-05-21T12:28:34;102800.22;;;14.94;58.26
72370;BME280;60343;-32.030;115.880;2023-05-21T12:31:14;102803.31;;;14.99;57.95
72370;BME280;60343;-32.030;115.880;2023-05-21T12:33:49;102810.88;;;14.95;57.90
72370;BME280;60343;-32.030;115.880;2023-05-21T12:36:26;102809.56;;;14.99;57.96
72370;BME280;60343;-32.030;115.880;2023-05-21T12:39:08;102811.50;;;15.07;57.30
72370;BME280;60343;-32.030;115.880;2023-05-21T12:41:43;102818.59;;;15.08;57.26
72370;BME280;60343;-32.030;115.880;2023-05-21T12:44:17;102813.66;;;15.03;57.11
72370;BME280;60343;-32.030;115.880;2023-05-21T12:46:52;102806.50;;;15.12;56.76
72370;BME280;60343;-32.030;115.880;2023-05-21T12:49:45;102812.44;;;15.16;56.85
72370;BME280;60343;-32.030;115.880;2023-05-21T12:52:22;102806.66;;;15.11;56.78
72370;BME280;60343;-32.030;115.880;2023-05-21T12:55:03;102809.28;;;15.02;57.65
72370;BME280;60343;-32.030;115.880;2023-05-21T12:57:38;102813.56;;;14.95;58.16
72370;BME280;60343;-32.030;115.880;2023-05-21T13:00:13;102808.63;;;14.91;58.20
72370;BME280;60343;-32.030;115.880;2023-05-21T13:02:48;102806.06;;;14.89;58.05
72370;BME280;60343;-32.030;115.880;2023-05-21T13:05:23;102807.53;;;14.84;58.52
72370;BME280;60343;-32.030;115.880;2023-05-21T13:07:57;102812.19;;;14.91;57.12
72370;BME280;60343;-32.030;115.880;2023-05-21T13:10:38;102819.50;;;14.99;57.80
72370;BME280;60343;-32.030;115.880;2023-05-21T13:13:12;102813.66;;;15.03;57.21